createdAt,value
2022-09-22T00:00:08.824Z,10.434
2022-09-22T00:01:09.361Z,10.412
2022-09-22T00:02:08.585Z,10.4127
2022-09-22T00:03:08.118Z,10.39
2022-09-22T00:04:08.385Z,10.3846
2022-09-22T00:05:09.118Z,10.3672
2022-09-22T00:06:08.088Z,10.339
2022-09-22T00:07:09.560Z,10.331
2022-09-22T00:08:11.275Z,10.3163
2022-09-22T00:09:09.491Z,10.3108
2022-09-22T00:10:09.812Z,10.2915
2022-09-22T00:11:09.221Z,10.2827
2022-09-22T00:12:08.071Z,10.255
2022-09-22T00:13:11.959Z,10.235
2022-09-22T00:14:08.621Z,10.24
2022-09-22T00:15:08.884Z,10.235
2022-09-22T00:16:08.578Z,10.215
2022-09-22T00:17:09.255Z,10.235
2022-09-22T00:18:09.301Z,10.199
2022-09-22T00:19:07.732Z,10.172
2022-09-22T00:20:08.681Z,10.19
2022-09-22T00:21:09.147Z,10.16
2022-09-22T00:22:10.788Z,10.155
2022-09-22T00:23:08.907Z,10.172
2022-09-22T00:24:08.220Z,10.1841
2022-09-22T00:25:08.634Z,10.1783
2022-09-22T00:26:09.108Z,10.177
2022-09-22T00:27:08.518Z,10.1783
2022-09-22T00:28:08.426Z,10.172
2022-09-22T00:29:12.984Z,10.1258
2022-09-22T00:30:12.076Z,10.143
2022-09-22T00:31:09.427Z,10.1316
2022-09-22T00:32:09.115Z,10.1208
2022-09-22T00:33:09.027Z,10.12
2022-09-22T00:34:09.017Z,10.115
2022-09-22T00:35:08.582Z,10.11
2022-09-22T00:36:07.806Z,10.085
2022-09-22T00:37:08.771Z,10.065
2022-09-22T00:38:09.041Z,10.05
2022-09-22T00:39:12.591Z,10.065
2022-09-22T00:40:08.541Z,10.035
2022-09-22T00:41:09.103Z,10.025
2022-09-22T00:42:08.674Z,10.02
2022-09-22T00:43:08.584Z,10.005
2022-09-22T00:44:09.440Z,9.99
2022-09-22T00:45:08.770Z,9.96
2022-09-22T00:46:11.888Z,9.96
2022-09-22T00:47:11.652Z,9.935
2022-09-22T00:48:09.312Z,9.925
2022-09-22T00:49:09.839Z,9.899
2022-09-22T00:50:11.401Z,9.9
2022-09-22T00:51:11.456Z,9.89
2022-09-22T00:52:11.494Z,9.856
2022-09-22T00:53:08.864Z,9.856
2022-09-22T00:54:08.075Z,9.845
2022-09-22T00:55:09.600Z,9.833
2022-09-22T00:56:08.512Z,9.828
2022-09-22T00:57:09.183Z,9.805
2022-09-22T00:58:12.214Z,9.78
2022-09-22T00:59:09.305Z,9.765
2022-09-22T01:00:08.319Z,9.75
2022-09-22T01:01:09.235Z,9.735
2022-09-22T01:02:12.213Z,9.705
2022-09-22T01:03:08.923Z,9.6891
2022-09-22T01:04:07.975Z,9.66
2022-09-22T01:05:09.298Z,9.643
2022-09-22T01:06:09.386Z,9.6258
2022-09-22T01:07:08.747Z,9.615
2022-09-22T01:08:09.547Z,9.61
2022-09-22T01:09:09.143Z,9.62
2022-09-22T01:10:08.774Z,9.61
2022-09-22T01:11:08.958Z,9.59
2022-09-22T01:12:09.044Z,9.565
2022-09-22T01:13:08.431Z,9.56
2022-09-22T01:14:08.302Z,9.545
2022-09-22T01:15:09.057Z,9.525
2022-09-22T01:16:09.181Z,9.515
2022-09-22T01:17:11.331Z,9.505
2022-09-22T01:18:09.206Z,9.48
2022-09-22T01:19:08.634Z,9.47
2022-09-22T01:20:11.317Z,9.45
2022-09-22T01:21:08.980Z,9.46
2022-09-22T01:22:09.417Z,9.465
2022-09-22T01:23:09.611Z,9.445
2022-09-22T01:24:08.114Z,9.44
2022-09-22T01:25:09.547Z,9.42
2022-09-22T01:26:08.893Z,9.425
2022-09-22T01:27:11.773Z,9.41
2022-09-22T01:28:08.602Z,9.4
2022-09-22T01:29:07.943Z,9.379
2022-09-22T01:30:08.604Z,9.3746
2022-09-22T01:31:08.757Z,9.3854
2022-09-22T01:32:11.982Z,9.3741
2022-09-22T01:33:08.711Z,9.3683
2022-09-22T01:34:11.948Z,9.347
2022-09-22T01:35:11.233Z,9.3163
2022-09-22T01:36:08.598Z,9.305
2022-09-22T01:37:12.278Z,9.2684
2022-09-22T01:38:08.990Z,9.25
2022-09-22T01:39:08.244Z,9.21
2022-09-22T01:40:11.296Z,9.205
2022-09-22T01:41:09.015Z,9.22
2022-09-22T01:42:08.759Z,9.22
2022-09-22T01:43:09.675Z,9.23
2022-09-22T01:44:08.724Z,9.225
2022-09-22T01:45:08.444Z,9.22
2022-09-22T01:46:11.610Z,9.22
2022-09-22T01:47:09.129Z,9.205
2022-09-22T01:48:08.951Z,9.225
2022-09-22T01:49:09.176Z,9.22
2022-09-22T01:50:09.256Z,9.19
2022-09-22T01:51:08.934Z,9.195
2022-09-22T01:52:11.203Z,9.188
2022-09-22T01:53:08.718Z,9.195
2022-09-22T01:54:09.643Z,9.177
2022-09-22T01:55:09.154Z,9.195
2022-09-22T01:56:08.953Z,9.2
2022-09-22T01:57:09.443Z,9.172
2022-09-22T01:58:08.858Z,9.1783
2022-09-22T01:59:08.622Z,9.1783
2022-09-22T02:00:09.662Z,9.16
2022-09-22T02:01:13.778Z,9.16
2022-09-22T02:02:09.914Z,9.171
2022-09-22T02:03:09.429Z,9.172
2022-09-22T02:04:08.248Z,9.155
2022-09-22T02:05:09.565Z,9.138
2022-09-22T02:06:09.147Z,9.1258
2022-09-22T02:07:08.776Z,9.115
2022-09-22T02:08:09.664Z,9.105
2022-09-22T02:09:12.968Z,9.075
2022-09-22T02:10:09.417Z,9.07
2022-09-22T02:11:09.093Z,9.05
2022-09-22T02:12:08.678Z,9.055
2022-09-22T02:13:09.438Z,9.04
2022-09-22T02:14:07.760Z,9.035
2022-09-22T02:15:08.055Z,9.015
2022-09-22T02:16:12.022Z,9.01
2022-09-22T02:17:09.156Z,9.01
2022-09-22T02:18:09.010Z,8.995
2022-09-22T02:19:13.061Z,8.985
2022-09-22T02:20:08.519Z,8.97
2022-09-22T02:21:11.764Z,8.96
2022-09-22T02:22:08.929Z,8.96
2022-09-22T02:23:09.740Z,8.945
2022-09-22T02:24:08.195Z,8.92
2022-09-22T02:25:09.025Z,8.91
2022-09-22T02:26:09.201Z,8.89
2022-09-22T02:27:09.845Z,8.9
2022-09-22T02:28:08.928Z,8.861
2022-09-22T02:29:08.136Z,8.85
2022-09-22T02:30:08.844Z,8.833
2022-09-22T02:31:19.854Z,8.8216
2022-09-22T02:32:12.252Z,8.81
2022-09-22T02:33:09.561Z,8.805
2022-09-22T02:34:08.028Z,8.79
2022-09-22T02:35:08.831Z,8.795
2022-09-22T02:36:09.690Z,8.77
2022-09-22T02:37:08.708Z,8.77
2022-09-22T02:38:08.333Z,8.775
2022-09-22T02:39:08.410Z,8.76
2022-09-22T02:40:08.458Z,8.76
2022-09-22T02:41:08.482Z,8.75
2022-09-22T02:42:09.506Z,8.76
2022-09-22T02:43:09.225Z,8.745
2022-09-22T02:44:07.847Z,8.71
2022-09-22T02:45:09.467Z,8.725
2022-09-22T02:46:08.828Z,8.71
2022-09-22T02:47:08.997Z,8.6891
2022-09-22T02:48:09.452Z,8.695
2022-09-22T02:49:09.194Z,8.637
2022-09-22T02:50:09.800Z,8.66
2022-09-22T02:51:08.603Z,8.637
2022-09-22T02:52:08.981Z,8.626
2022-09-22T02:53:09.643Z,8.605
2022-09-22T02:54:07.894Z,8.595
2022-09-22T02:55:08.383Z,8.57
2022-09-22T02:56:08.543Z,8.57
2022-09-22T02:57:08.958Z,8.55
2022-09-22T02:58:09.694Z,8.525
2022-09-22T02:59:08.028Z,8.52
2022-09-22T03:00:11.736Z,8.51
2022-09-22T03:01:09.227Z,8.515
2022-09-22T03:02:08.666Z,8.4945
2022-09-22T03:03:09.551Z,8.463
2022-09-22T03:04:09.208Z,8.455
2022-09-22T03:05:11.915Z,8.4454
2022-09-22T03:06:08.851Z,8.445
2022-09-22T03:07:09.070Z,8.407
2022-09-22T03:08:11.905Z,8.4018
2022-09-22T03:09:08.686Z,8.395
2022-09-22T03:10:08.585Z,8.3683
2022-09-22T03:11:12.047Z,8.316
2022-09-22T03:12:12.080Z,8.311
2022-09-22T03:13:16.290Z,8.285
2022-09-22T03:14:08.282Z,8.27
2022-09-22T03:15:11.288Z,8.265
2022-09-22T03:16:09.129Z,8.235
2022-09-22T03:17:12.060Z,8.225
2022-09-22T03:18:08.171Z,8.215
2022-09-22T03:19:09.715Z,8.21
2022-09-22T03:20:09.055Z,8.2
2022-09-22T03:21:12.089Z,8.1783
2022-09-22T03:22:08.319Z,8.172
2022-09-22T03:23:09.634Z,8.16
2022-09-22T03:24:08.931Z,8.1316
2022-09-22T03:25:08.121Z,8.1316
2022-09-22T03:26:09.129Z,8.121
2022-09-22T03:27:08.481Z,8.1
2022-09-22T03:28:08.637Z,8.105
2022-09-22T03:29:09.258Z,8.09
2022-09-22T03:30:08.811Z,8.085
2022-09-22T03:31:12.076Z,8.075
2022-09-22T03:32:11.489Z,8.055
2022-09-22T03:33:09.393Z,8.055
2022-09-22T03:34:10.573Z,8.035
2022-09-22T03:35:09.491Z,8.015
2022-09-22T03:36:08.405Z,8.02
2022-09-22T03:37:08.685Z,8.025
2022-09-22T03:38:09.067Z,8.005
2022-09-22T03:39:07.788Z,8.02
2022-09-22T03:40:08.898Z,8.015
2022-09-22T03:41:08.377Z,8.03
2022-09-22T03:42:08.613Z,8.015
2022-09-22T03:43:14.373Z,8.005
2022-09-22T03:44:08.126Z,7.995
2022-09-22T03:45:08.433Z,8
2022-09-22T03:46:09.532Z,8
2022-09-22T03:47:09.194Z,7.98
2022-09-22T03:48:09.004Z,7.97
2022-09-22T03:49:08.162Z,7.955
2022-09-22T03:50:08.830Z,7.925
2022-09-22T03:51:08.257Z,7.93
2022-09-22T03:52:12.784Z,7.92
2022-09-22T03:53:08.981Z,7.905
2022-09-22T03:54:08.889Z,7.862
2022-09-22T03:55:09.290Z,7.827
2022-09-22T03:56:10.903Z,7.8216
2022-09-22T03:57:11.500Z,7.8
2022-09-22T03:58:08.794Z,7.78
2022-09-22T03:59:12.045Z,7.77
2022-09-22T04:00:12.223Z,7.77
2022-09-22T04:01:10.452Z,7.755
2022-09-22T04:02:08.951Z,7.76
2022-09-22T04:03:09.082Z,7.745
2022-09-22T04:04:08.661Z,7.74
2022-09-22T04:05:09.361Z,7.745
2022-09-22T04:06:08.792Z,7.75
2022-09-22T04:07:09.265Z,7.76
2022-09-22T04:08:09.268Z,7.775
2022-09-22T04:09:08.033Z,7.765
2022-09-22T04:10:10.417Z,7.775
2022-09-22T04:11:09.543Z,7.755
2022-09-22T04:12:09.535Z,7.76
2022-09-22T04:13:09.000Z,7.765
2022-09-22T04:14:08.736Z,7.775
2022-09-22T04:15:08.750Z,7.76
2022-09-22T04:16:08.793Z,7.75
2022-09-22T04:17:09.668Z,7.755
2022-09-22T04:18:08.968Z,7.765
2022-09-22T04:19:07.744Z,7.78
2022-09-22T04:20:08.886Z,7.755
2022-09-22T04:21:08.619Z,7.74
2022-09-22T04:22:09.559Z,7.745
2022-09-22T04:23:09.446Z,7.735
2022-09-22T04:24:07.509Z,7.725
2022-09-22T04:25:12.252Z,7.725
2022-09-22T04:26:08.258Z,7.73
2022-09-22T04:27:19.445Z,7.719
2022-09-22T04:28:08.549Z,7.72
2022-09-22T04:29:08.792Z,7.695
2022-09-22T04:30:08.331Z,7.699
2022-09-22T04:31:11.850Z,7.7063
2022-09-22T04:32:08.762Z,7.694
2022-09-22T04:33:09.371Z,7.6992
2022-09-22T04:34:07.779Z,7.7
2022-09-22T04:35:08.601Z,7.6783
2022-09-22T04:36:08.879Z,7.673
2022-09-22T04:37:08.976Z,7.645
2022-09-22T04:38:08.759Z,7.621
2022-09-22T04:39:08.049Z,7.604
2022-09-22T04:40:08.396Z,7.6
2022-09-22T04:41:08.876Z,7.59
2022-09-22T04:42:08.218Z,7.58
2022-09-22T04:43:09.970Z,7.565
2022-09-22T04:44:07.382Z,7.575
2022-09-22T04:45:10.967Z,7.56
2022-09-22T04:46:08.737Z,7.555
2022-09-22T04:47:09.145Z,7.55
2022-09-22T04:48:10.835Z,7.54
2022-09-22T04:49:09.432Z,7.525
2022-09-22T04:50:08.719Z,7.505
2022-09-22T04:51:09.393Z,7.495
2022-09-22T04:52:09.129Z,7.485
2022-09-22T04:53:12.439Z,7.465
2022-09-22T04:54:08.338Z,7.45
2022-09-22T04:55:08.358Z,7.445
2022-09-22T04:56:08.150Z,7.425
2022-09-22T04:57:09.036Z,7.425
2022-09-22T04:58:08.060Z,7.415
2022-09-22T04:59:07.293Z,7.405
2022-09-22T05:00:08.889Z,7.385
2022-09-22T05:01:08.425Z,7.389
2022-09-22T05:02:08.736Z,7.362
2022-09-22T05:03:08.554Z,7.362
2022-09-22T05:04:07.840Z,7.339
2022-09-22T05:05:11.189Z,7.327
2022-09-22T05:06:13.137Z,7.333
2022-09-22T05:07:08.109Z,7.3158
2022-09-22T05:08:08.749Z,7.305
2022-09-22T05:09:11.635Z,7.305
2022-09-22T05:10:10.162Z,7.295
2022-09-22T05:11:11.704Z,7.285
2022-09-22T05:12:09.064Z,7.285
2022-09-22T05:13:09.114Z,7.285
2022-09-22T05:14:09.857Z,7.28
2022-09-22T05:15:10.995Z,7.27
2022-09-22T05:16:08.624Z,7.26
2022-09-22T05:17:12.543Z,7.25
2022-09-22T05:18:09.236Z,7.245
2022-09-22T05:19:08.315Z,7.24
2022-09-22T05:20:08.698Z,7.245
2022-09-22T05:21:11.812Z,7.225
2022-09-22T05:22:11.744Z,7.225
2022-09-22T05:23:11.688Z,7.195
2022-09-22T05:24:08.378Z,7.22
2022-09-22T05:25:11.659Z,7.215
2022-09-22T05:26:08.998Z,7.177
2022-09-22T05:27:08.953Z,7.1891
2022-09-22T05:28:12.381Z,7.1841
2022-09-22T05:29:08.480Z,7.155
2022-09-22T05:30:08.652Z,7.16
2022-09-22T05:31:09.138Z,7.166
2022-09-22T05:32:08.543Z,7.149
2022-09-22T05:33:08.944Z,7.11
2022-09-22T05:34:07.849Z,7.085
2022-09-22T05:35:08.398Z,7.06
2022-09-22T05:36:09.062Z,7.065
2022-09-22T05:37:09.318Z,7.055
2022-09-22T05:38:09.137Z,7.06
2022-09-22T05:39:09.769Z,7.07
2022-09-22T05:40:09.057Z,7.065
2022-09-22T05:41:08.970Z,7.065
2022-09-22T05:42:11.148Z,7.06
2022-09-22T05:43:09.109Z,7.07
2022-09-22T05:44:08.814Z,7.08
2022-09-22T05:45:09.332Z,7.07
2022-09-22T05:46:09.057Z,7.075
2022-09-22T05:47:09.947Z,7.1
2022-09-22T05:48:14.125Z,7.08
2022-09-22T05:49:09.234Z,7.085
2022-09-22T05:50:09.405Z,7.1
2022-09-22T05:51:09.304Z,7.105
2022-09-22T05:52:08.628Z,7.11
2022-09-22T05:53:09.821Z,7.126
2022-09-22T05:54:07.988Z,7.1208
2022-09-22T05:55:09.251Z,7.126
2022-09-22T05:56:08.993Z,7.155
2022-09-22T05:57:08.963Z,7.16
2022-09-22T05:58:09.511Z,7.166
2022-09-22T05:59:09.152Z,7.166
2022-09-22T06:00:08.973Z,7.1772
2022-09-22T06:01:09.398Z,7.2
2022-09-22T06:02:23.804Z,7.2009
2022-09-22T06:03:09.923Z,7.213
2022-09-22T06:04:09.060Z,7.2118
2022-09-22T06:05:10.070Z,7.24
2022-09-22T06:06:09.136Z,7.239
2022-09-22T06:07:08.671Z,7.25
2022-09-22T06:08:09.071Z,7.28
2022-09-22T06:09:11.119Z,7.28
2022-09-22T06:10:08.536Z,7.316
2022-09-22T06:11:09.185Z,7.327
2022-09-22T06:12:11.631Z,7.362
2022-09-22T06:13:08.984Z,7.345
2022-09-22T06:14:08.597Z,7.38
2022-09-22T06:15:09.367Z,7.385
2022-09-22T06:16:08.776Z,7.41
2022-09-22T06:17:11.111Z,7.415
2022-09-22T06:18:10.863Z,7.445
2022-09-22T06:19:09.707Z,7.465
2022-09-22T06:20:09.033Z,7.495
2022-09-22T06:21:11.818Z,7.515
2022-09-22T06:22:08.849Z,7.525
2022-09-22T06:23:09.226Z,7.525
2022-09-22T06:24:09.086Z,7.56
2022-09-22T06:25:12.017Z,7.585
2022-09-22T06:26:08.837Z,7.605
2022-09-22T06:27:09.510Z,7.6258
2022-09-22T06:28:09.196Z,7.672
2022-09-22T06:29:08.758Z,7.6783
2022-09-22T06:30:08.481Z,7.73
2022-09-22T06:31:08.830Z,7.75
2022-09-22T06:32:09.052Z,7.78
2022-09-22T06:33:09.563Z,7.828
2022-09-22T06:34:07.859Z,7.8791
2022-09-22T06:35:09.228Z,7.899
2022-09-22T06:36:19.981Z,7.94
2022-09-22T06:37:09.258Z,7.965
2022-09-22T06:38:08.962Z,7.995
2022-09-22T06:39:09.811Z,8.035
2022-09-22T06:40:11.052Z,8.065
2022-09-22T06:41:08.730Z,8.115
2022-09-22T06:42:08.912Z,8.16
2022-09-22T06:43:09.081Z,8.205
2022-09-22T06:44:07.380Z,8.23
2022-09-22T06:45:09.431Z,8.26
2022-09-22T06:46:08.824Z,8.31
2022-09-22T06:47:11.710Z,8.356
2022-09-22T06:48:15.177Z,8.4
2022-09-22T06:49:12.087Z,8.45
2022-09-22T06:50:09.456Z,8.49
2022-09-22T06:51:11.178Z,8.5
2022-09-22T06:52:08.815Z,8.57
2022-09-22T06:53:12.492Z,8.605
2022-09-22T06:54:09.653Z,8.665
2022-09-22T06:55:11.591Z,8.705
2022-09-22T06:56:11.669Z,8.725
2022-09-22T06:57:11.855Z,8.79
2022-09-22T06:58:09.080Z,8.85
2022-09-22T06:59:10.658Z,8.89
2022-09-22T07:00:09.436Z,8.935
2022-09-22T07:01:09.833Z,8.98
2022-09-22T07:02:12.284Z,9.03
2022-09-22T07:03:09.161Z,9.05
2022-09-22T07:04:08.659Z,9.085
2022-09-22T07:05:08.322Z,9.172
2022-09-22T07:06:09.876Z,9.225
2022-09-22T07:07:09.037Z,9.28
2022-09-22T07:08:09.200Z,9.334
2022-09-22T07:09:10.022Z,9.384
2022-09-22T07:10:09.215Z,9.445
2022-09-22T07:11:08.491Z,9.495
2022-09-22T07:12:08.819Z,9.55
2022-09-22T07:13:08.968Z,9.622
2022-09-22T07:14:08.935Z,9.704
2022-09-22T07:15:12.560Z,9.74
2022-09-22T07:16:08.808Z,9.839
2022-09-22T07:17:12.125Z,9.915
2022-09-22T07:18:12.348Z,9.985
2022-09-22T07:19:08.231Z,10.015
2022-09-22T07:20:09.540Z,10.122
2022-09-22T07:21:09.269Z,10.198
2022-09-22T07:22:11.759Z,10.265
2022-09-22T07:23:09.459Z,10.333
2022-09-22T07:24:08.983Z,10.42
2022-09-22T07:25:09.408Z,10.485
2022-09-22T07:26:08.855Z,10.53
2022-09-22T07:27:08.996Z,10.605
2022-09-22T07:28:08.910Z,10.682
2022-09-22T07:29:08.355Z,10.745
2022-09-22T07:30:08.455Z,10.8163
2022-09-22T07:31:09.394Z,10.8984
2022-09-22T07:32:09.239Z,10.965
2022-09-22T07:33:08.474Z,11.0109
2022-09-22T07:34:09.307Z,11.103
2022-09-22T07:35:11.886Z,11.177
2022-09-22T07:36:11.975Z,11.235
2022-09-22T07:37:09.101Z,11.312
2022-09-22T07:38:08.655Z,11.384
2022-09-22T07:39:07.892Z,11.45
2022-09-22T07:40:08.586Z,11.515
2022-09-22T07:41:08.808Z,11.6
2022-09-22T07:42:11.181Z,11.672
2022-09-22T07:43:08.533Z,11.745
2022-09-22T07:44:08.378Z,11.816
2022-09-22T07:45:08.386Z,11.905
2022-09-22T07:46:09.183Z,11.96
2022-09-22T07:47:08.813Z,12.035
2022-09-22T07:48:07.728Z,12.095
2022-09-22T07:49:08.374Z,12.1891
2022-09-22T07:50:08.711Z,12.245
2022-09-22T07:51:14.294Z,12.29
2022-09-22T07:52:08.786Z,12.362
2022-09-22T07:53:08.734Z,12.44
2022-09-22T07:54:10.967Z,12.51
2022-09-22T07:55:08.859Z,12.56
2022-09-22T07:56:09.439Z,12.633
2022-09-22T07:57:09.079Z,12.694
2022-09-22T07:58:08.314Z,12.74
2022-09-22T07:59:09.517Z,12.795
2022-09-22T08:00:09.144Z,12.862
2022-09-22T08:01:12.291Z,12.935
2022-09-22T08:02:08.874Z,12.985
2022-09-22T08:03:09.363Z,13.08
2022-09-22T08:04:09.172Z,13.133
2022-09-22T08:05:08.964Z,13.1891
2022-09-22T08:06:08.740Z,13.255
2022-09-22T08:07:12.163Z,13.311
2022-09-22T08:08:09.097Z,13.356
2022-09-22T08:09:08.691Z,13.384
2022-09-22T08:10:08.480Z,13.41
2022-09-22T08:11:08.998Z,13.45
2022-09-22T08:12:11.535Z,13.47
2022-09-22T08:13:08.869Z,13.52
2022-09-22T08:14:12.049Z,13.52
2022-09-22T08:15:09.054Z,13.5
2022-09-22T08:16:09.077Z,13.515
2022-09-22T08:17:11.915Z,13.555
2022-09-22T08:18:12.654Z,13.59
2022-09-22T08:19:12.447Z,13.643
2022-09-22T08:20:09.382Z,13.654
2022-09-22T08:21:09.223Z,13.7
2022-09-22T08:22:08.977Z,13.715
2022-09-22T08:23:09.489Z,13.811
2022-09-22T08:24:12.108Z,13.89
2022-09-22T08:25:09.501Z,13.895
2022-09-22T08:26:08.749Z,13.8683
2022-09-22T08:27:10.053Z,13.888
2022-09-22T08:28:09.268Z,13.96
2022-09-22T08:29:09.075Z,13.98
2022-09-22T08:30:09.746Z,13.99
2022-09-22T08:31:09.624Z,14.015
2022-09-22T08:32:08.533Z,14.04
2022-09-22T08:33:09.117Z,14.118
2022-09-22T08:34:11.276Z,14.21
2022-09-22T08:35:17.046Z,14.19
2022-09-22T08:36:08.961Z,14.21
2022-09-22T08:37:08.674Z,14.205
2022-09-22T08:38:12.804Z,14.27
2022-09-22T08:39:08.900Z,14.389
2022-09-22T08:40:09.044Z,14.44
2022-09-22T08:41:09.270Z,14.445
2022-09-22T08:42:10.643Z,14.3791
2022-09-22T08:43:08.677Z,14.399
2022-09-22T08:44:12.335Z,14.415
2022-09-22T08:45:08.764Z,14.46
2022-09-22T08:46:09.448Z,14.49
2022-09-22T08:47:08.313Z,14.55
2022-09-22T08:48:09.223Z,14.59
2022-09-22T08:49:09.045Z,14.686
2022-09-22T08:50:09.631Z,14.77
2022-09-22T08:51:09.255Z,14.78
2022-09-22T08:52:08.636Z,14.883
2022-09-22T08:53:10.578Z,14.895
2022-09-22T08:54:09.543Z,14.817
2022-09-22T08:55:08.867Z,14.76
2022-09-22T08:56:08.286Z,14.765
2022-09-22T08:57:09.461Z,14.775
2022-09-22T08:58:08.807Z,14.822
2022-09-22T08:59:08.699Z,14.884
2022-09-22T09:00:12.151Z,14.935
2022-09-22T09:01:12.749Z,14.98
2022-09-22T09:02:08.871Z,15.049
2022-09-22T09:03:09.901Z,15.216
2022-09-22T09:04:09.077Z,15.2172
2022-09-22T09:05:08.026Z,15.23
2022-09-22T09:06:09.110Z,15.2361
2022-09-22T09:07:09.180Z,15.2609
2022-09-22T09:08:08.385Z,15.29
2022-09-22T09:09:09.408Z,15.362
2022-09-22T09:10:08.998Z,15.445
2022-09-22T09:11:12.267Z,15.56
2022-09-22T09:12:08.977Z,15.622
2022-09-22T09:13:11.903Z,15.66
2022-09-22T09:14:08.995Z,15.77
2022-09-22T09:15:08.914Z,15.755
2022-09-22T09:16:08.772Z,15.709
2022-09-22T09:17:11.176Z,15.672
2022-09-22T09:18:08.376Z,15.655
2022-09-22T09:19:08.739Z,15.672
2022-09-22T09:20:11.462Z,15.705
2022-09-22T09:21:09.092Z,15.73
2022-09-22T09:22:08.301Z,15.745
2022-09-22T09:23:09.067Z,15.822
2022-09-22T09:25:23.053Z,15.915
2022-09-22T09:26:09.164Z,15.96
2022-09-22T09:27:08.838Z,15.995
2022-09-22T09:28:09.553Z,16.095
2022-09-22T09:29:09.904Z,16.166
2022-09-22T09:30:11.982Z,16.205
2022-09-22T09:31:12.317Z,16.25
2022-09-22T09:32:09.084Z,16.332
2022-09-22T09:33:09.850Z,16.48
2022-09-22T09:34:07.739Z,16.505
2022-09-22T09:35:09.340Z,16.575
2022-09-22T09:36:09.113Z,16.664
2022-09-22T09:37:12.145Z,16.705
2022-09-22T09:38:09.035Z,16.735
2022-09-22T09:39:08.992Z,16.75
2022-09-22T09:40:09.313Z,16.75
2022-09-22T09:41:08.969Z,16.8158
2022-09-22T09:42:11.652Z,16.805
2022-09-22T09:43:11.764Z,16.856
2022-09-22T09:44:12.611Z,16.9
2022-09-22T09:45:08.708Z,16.985
2022-09-22T09:46:11.869Z,17.117
2022-09-22T09:47:08.718Z,17.1891
2022-09-22T09:48:09.371Z,17.23
2022-09-22T09:49:09.136Z,17.28
2022-09-22T09:50:08.368Z,17.3683
2022-09-22T09:51:09.588Z,17.42
2022-09-22T09:52:11.832Z,17.55
2022-09-22T09:53:09.450Z,17.643
2022-09-22T09:54:13.100Z,17.755
2022-09-22T09:55:11.491Z,17.856
2022-09-22T09:56:08.869Z,17.92
2022-09-22T09:57:08.822Z,17.96
2022-09-22T09:58:09.224Z,18.04
2022-09-22T09:59:09.129Z,18.186
2022-09-22T10:00:12.055Z,18.295
2022-09-22T10:01:09.531Z,18.3158
2022-09-22T10:02:09.076Z,18.3158
2022-09-22T10:03:09.382Z,18.345
2022-09-22T10:04:08.554Z,18.415
2022-09-22T10:05:09.525Z,18.46
2022-09-22T10:06:09.464Z,18.505
2022-09-22T10:07:08.887Z,18.55
2022-09-22T10:08:09.630Z,18.59
2022-09-22T10:09:09.180Z,18.681
2022-09-22T10:10:09.016Z,18.74
2022-09-22T10:11:11.968Z,18.78
2022-09-22T10:12:09.413Z,18.833
2022-09-22T10:13:09.336Z,18.878
2022-09-22T10:14:11.769Z,18.925
2022-09-22T10:15:09.203Z,19.055
2022-09-22T10:16:09.531Z,19.137
2022-09-22T10:17:09.413Z,19.172
2022-09-22T10:18:08.998Z,19.225
2022-09-22T10:19:09.659Z,19.285
2022-09-22T10:20:08.854Z,19.26
2022-09-22T10:21:09.044Z,19.26
2022-09-22T10:22:09.639Z,19.26
2022-09-22T10:23:08.956Z,19.322
2022-09-22T10:24:10.355Z,19.415
2022-09-22T10:25:08.769Z,19.395
2022-09-22T10:26:09.329Z,19.41
2022-09-22T10:27:08.916Z,19.435
2022-09-22T10:28:08.460Z,19.4781
2022-09-22T10:29:09.064Z,19.5507
2022-09-22T10:30:08.747Z,19.6
2022-09-22T10:31:09.189Z,19.709
2022-09-22T10:32:12.022Z,19.755
2022-09-22T10:33:09.300Z,19.785
2022-09-22T10:34:09.507Z,19.83
2022-09-22T10:35:08.654Z,19.862
2022-09-22T10:36:11.868Z,19.8792
2022-09-22T10:37:08.807Z,19.9072
2022-09-22T10:38:08.865Z,19.963
2022-09-22T10:39:09.632Z,20
2022-09-22T10:40:08.189Z,20.05
2022-09-22T10:41:09.452Z,20.05
2022-09-22T10:42:08.712Z,20.065
2022-09-22T10:43:09.620Z,20.05
2022-09-22T10:44:27.660Z,20.09
2022-09-22T10:45:11.889Z,20.198
2022-09-22T10:46:09.163Z,20.21
2022-09-22T10:47:09.623Z,20.313
2022-09-22T10:48:09.170Z,20.362
2022-09-22T10:49:08.592Z,20.373
2022-09-22T10:50:09.439Z,20.362
2022-09-22T10:51:08.948Z,20.35
2022-09-22T10:52:08.477Z,20.322
2022-09-22T10:53:09.352Z,20.295
2022-09-22T10:54:08.784Z,20.322
2022-09-22T10:55:12.045Z,20.405
2022-09-22T10:56:11.610Z,20.42
2022-09-22T10:57:08.716Z,20.395
2022-09-22T10:58:08.833Z,20.367
2022-09-22T10:59:09.128Z,20.367
2022-09-22T11:00:11.617Z,20.3683
2022-09-22T11:01:09.134Z,20.356
2022-09-22T11:02:09.173Z,20.3683
2022-09-22T11:03:09.106Z,20.41
2022-09-22T11:04:08.072Z,20.425
2022-09-22T11:05:09.337Z,20.475
2022-09-22T11:06:08.419Z,20.5
2022-09-22T11:07:08.888Z,20.525
2022-09-22T11:08:08.837Z,20.575
2022-09-22T11:09:08.934Z,20.672
2022-09-22T11:10:08.534Z,20.705
2022-09-22T11:11:09.231Z,20.745
2022-09-22T11:12:09.466Z,20.827
2022-09-22T11:13:08.521Z,20.867
2022-09-22T11:14:09.570Z,20.889
2022-09-22T11:15:09.199Z,20.904
2022-09-22T11:16:11.816Z,20.96
2022-09-22T11:17:09.301Z,20.965
2022-09-22T11:18:10.817Z,20.99
2022-09-22T11:19:09.793Z,21.01
2022-09-22T11:20:08.375Z,21.065
2022-09-22T11:21:08.470Z,21.095
2022-09-22T11:22:09.308Z,21.155
2022-09-22T11:23:09.210Z,21.297
2022-09-22T11:24:09.013Z,21.295
2022-09-22T11:25:09.186Z,21.275
2022-09-22T11:26:08.828Z,21.24
2022-09-22T11:27:11.871Z,21.245
2022-09-22T11:28:09.135Z,21.27
2022-09-22T11:29:09.733Z,21.16
2022-09-22T11:30:11.192Z,21.075
2022-09-22T11:31:08.893Z,21.04
2022-09-22T11:32:09.537Z,20.99
2022-09-22T11:33:09.093Z,21
2022-09-22T11:34:09.036Z,21.015
2022-09-22T11:35:09.399Z,21.075
2022-09-22T11:36:09.040Z,21.04
2022-09-22T11:37:08.813Z,21.02
2022-09-22T11:38:09.177Z,21.015
2022-09-22T11:39:09.273Z,21.02
2022-09-22T11:40:08.647Z,21.045
2022-09-22T11:41:09.157Z,21.09
2022-09-22T11:42:08.571Z,21.11
2022-09-22T11:43:09.553Z,21.085
2022-09-22T11:44:10.941Z,21.065
2022-09-22T11:45:12.412Z,21.075
2022-09-22T11:46:08.859Z,21.105
2022-09-22T11:47:09.128Z,21.155
2022-09-22T11:48:08.955Z,21.225
2022-09-22T11:49:08.503Z,21.3
2022-09-22T11:50:09.483Z,21.362
2022-09-22T11:51:12.160Z,21.45
2022-09-22T11:52:16.568Z,21.54
2022-09-22T11:53:09.275Z,21.644
2022-09-22T11:54:08.739Z,21.724
2022-09-22T11:55:12.211Z,21.85
2022-09-22T11:56:08.921Z,21.839
2022-09-22T11:57:09.431Z,21.919
2022-09-22T11:58:08.780Z,22.127
2022-09-22T11:59:09.237Z,22.041
2022-09-22T12:00:08.987Z,21.955
2022-09-22T12:01:12.946Z,21.854
2022-09-22T12:02:08.890Z,21.821
2022-09-22T12:03:09.299Z,21.799
2022-09-22T12:04:08.841Z,21.85
2022-09-22T12:05:09.448Z,21.8692
2022-09-22T12:06:09.287Z,21.878
2022-09-22T12:07:08.685Z,21.975
2022-09-22T12:08:08.976Z,21.97
2022-09-22T12:09:09.065Z,22
2022-09-22T12:10:09.473Z,22.01
2022-09-22T12:11:09.236Z,22.09
2022-09-22T12:12:11.644Z,22.155
2022-09-22T12:13:08.791Z,22.209
2022-09-22T12:14:11.829Z,22.25
2022-09-22T12:15:09.514Z,22.245
2022-09-22T12:16:08.685Z,22.35
2022-09-22T12:17:08.876Z,22.3791
2022-09-22T12:18:09.095Z,22.424
2022-09-22T12:19:08.896Z,22.265
2022-09-22T12:20:11.692Z,22.025
2022-09-22T12:21:08.504Z,21.903
2022-09-22T12:22:09.164Z,21.775
2022-09-22T12:23:08.945Z,21.725
2022-09-22T12:24:11.352Z,21.672
2022-09-22T12:25:11.067Z,21.677
2022-09-22T12:26:09.218Z,21.7
2022-09-22T12:27:09.021Z,21.785
2022-09-22T12:28:08.724Z,21.828
2022-09-22T12:29:09.458Z,21.791
2022-09-22T12:30:13.657Z,21.73
2022-09-22T12:31:08.842Z,21.755
2022-09-22T12:32:12.010Z,21.6891
2022-09-22T12:33:09.092Z,21.677
2022-09-22T12:34:07.664Z,21.75
2022-09-22T12:35:08.841Z,21.715
2022-09-22T12:36:11.743Z,21.7
2022-09-22T12:37:12.299Z,21.715
2022-09-22T12:38:09.349Z,21.765
2022-09-22T12:39:09.251Z,21.871
2022-09-22T12:40:09.481Z,22.025
2022-09-22T12:41:09.225Z,22.015
2022-09-22T12:42:09.164Z,21.995
2022-09-22T12:43:12.613Z,22.09
2022-09-22T12:44:09.074Z,22.121
2022-09-22T12:45:11.894Z,22.09
2022-09-22T12:46:09.332Z,21.98
2022-09-22T12:47:09.118Z,21.935
2022-09-22T12:48:10.580Z,21.95
2022-09-22T12:49:09.077Z,21.935